createdAt,value
2024-03-02T00:04:06.297Z,6.25
2024-03-02T00:34:06.361Z,6.63
2024-03-02T01:04:06.324Z,6.75
2024-03-02T01:34:06.385Z,6.63
2024-03-02T02:04:06.303Z,6.38
2024-03-02T02:34:06.384Z,6.25
2024-03-02T03:04:06.309Z,6.56
2024-03-02T03:34:06.355Z,6.56
2024-03-02T04:04:06.337Z,6.44
2024-03-02T04:34:06.531Z,6
2024-03-02T05:04:06.338Z,5.88
2024-03-02T05:34:06.482Z,5.81
2024-03-02T06:04:06.344Z,5.56
2024-03-02T06:34:06.486Z,5.31
2024-03-02T07:04:06.373Z,5.88
2024-03-02T07:34:06.437Z,7.19
2024-03-02T08:04:06.380Z,7.94
2024-03-02T08:34:06.440Z,8.13
2024-03-02T09:04:06.511Z,8.81
2024-03-02T09:34:06.490Z,9.81
2024-03-02T10:04:06.425Z,10.81
2024-03-02T10:34:06.467Z,11.56
2024-03-02T11:04:06.401Z,12.56
2024-03-02T11:34:06.465Z,12.56
2024-03-02T12:04:06.477Z,12.19
2024-03-02T12:34:06.460Z,13.75
2024-03-02T13:04:06.469Z,14
2024-03-02T13:34:06.455Z,14.81
2024-03-02T14:04:06.479Z,15.94
2024-03-02T14:34:06.486Z,15.63
2024-03-02T15:04:06.493Z,15.38
2024-03-02T15:34:06.512Z,14.06
2024-03-02T16:04:06.509Z,12.44
2024-03-02T16:34:06.539Z,10.63
2024-03-02T17:04:06.525Z,9.94
2024-03-02T17:34:06.534Z,9.19
2024-03-02T18:04:09.965Z,8.63
2024-03-02T18:34:06.568Z,8.13
2024-03-02T19:04:06.593Z,7.63
2024-03-02T19:34:06.488Z,7.38
2024-03-02T20:04:06.526Z,7.38
2024-03-02T20:34:06.537Z,7.19
2024-03-02T21:04:06.517Z,7
2024-03-02T21:34:06.537Z,6.75
2024-03-02T22:04:06.537Z,6.44
2024-03-02T22:34:06.580Z,6.13
2024-03-02T23:04:06.601Z,6.19
2024-03-02T23:34:07.959Z,6.25
